Terminal Aerodrome Forecast
Issued by NWS

Home | Current Version | Previous Version | Text Only | Print | Product List | Glossary On
Versions: 1 2 3 4 5 6 7 8 9 10 11 12 13 14 15 16 17 18 19 20 21 22 23 24 25 26 27 28 29
000
FTUS42 KGSP 261913 AAA
TAFHKY
TAF AMD
KHKY 261913Z 2619/2718 21009G16KT P6SM FEW025 SCT250
     FM262200 21010KT P6SM BKN060
     FM270500 31005KT P6SM -SHRA SCT020 OVC050
     FM270700 34005KT P6SM -SHRA OVC020
     FM271100 01007KT P6SM OVC008
     FM271400 02007KT P6SM BKN030=

USA.gov is the U.S. government's official web portal to all federal, state and local government web resources and services.